Time;durP1;ratioP1;P1;durP2;ratioP2;P2;SDS_P1;SDS_P2;PMS_P1;PMS_P2;Temp;Humidity;BMP_temperature;BMP_pressure;BME280_temperature;BME280_humidity;BME280_pressure;Samples;Min_cycle;Max_cycle;Signal;HPM_P1;HPM_P2
2022/03/14 00:01:14;;;;;;;16.92;11.45;;;8.80;57.90;;;;;;5071836;28;20079;-69
2022/03/14 00:03:53;;;;;;;17.27;11.70;;;8.80;58.20;;;;;;5071661;28;20099;-69
2022/03/14 00:06:20;;;;;;;17.23;11.88;;;8.80;59.10;;;;;;5071280;28;20505;-69
2022/03/14 00:08:46;;;;;;;17.73;11.15;;;8.80;58.60;;;;;;5053696;28;20055;-69
2022/03/14 00:11:15;;;;;;;15.15;11.68;;;8.80;58.90;;;;;;5071615;28;20041;-69
2022/03/14 00:13:46;;;;;;;18.85;12.05;;;8.80;59.00;;;;;;5071619;28;20044;-69
2022/03/14 00:16:25;;;;;;;16.42;12.07;;;8.70;59.20;;;;;;5071171;28;20448;-69
2022/03/14 00:18:53;;;;;;;17.17;12.73;;;8.80;59.30;;;;;;5053650;28;20045;-69
2022/03/14 00:21:23;;;;;;;18.40;12.63;;;8.80;59.50;;;;;;5053643;28;20037;-69
2022/03/14 00:23:53;;;;;;;20.20;12.95;;;8.80;59.60;;;;;;5071591;28;20055;-69
2022/03/14 00:26:21;;;;;;;17.60;12.73;;;8.70;60.00;;;;;;5071143;28;20510;-70
2022/03/14 00:28:50;;;;;;;18.00;13.32;;;8.80;60.10;;;;;;5071413;28;20049;-69
2022/03/14 00:31:16;;;;;;;17.92;12.68;;;8.80;60.40;;;;;;5071688;28;20190;-69
2022/03/14 00:33:42;;;;;;;17.42;13.30;;;8.80;60.40;;;;;;5053740;28;20083;-69
2022/03/14 00:36:08;;;;;;;19.50;13.25;;;8.80;60.70;;;;;;5053413;28;20041;-69
2022/03/14 00:38:36;;;;;;;16.33;12.77;;;8.80;60.90;;;;;;5053563;28;20045;-69
2022/03/14 00:41:03;;;;;;;18.45;12.93;;;8.80;61.10;;;;;;5071339;28;20040;-69
2022/03/14 00:43:29;;;;;;;21.05;14.07;;;8.80;61.70;;;;;;5071606;28;20101;-69
2022/03/14 00:45:54;;;;;;;21.67;13.70;;;8.80;62.20;;;;;;5070868;28;20554;-69
2022/03/14 00:48:20;;;;;;;17.70;12.85;;;8.80;62.60;;;;;;5053665;28;20044;-69
2022/03/14 00:50:46;;;;;;;24.95;14.30;;;8.70;63.00;;;;;;5053527;28;20567;-69
2022/03/14 00:53:12;;;;;;;21.02;14.13;;;8.70;63.60;;;;;;5071459;28;20494;-69
2022/03/14 00:55:37;;;;;;;18.95;13.50;;;8.60;64.20;;;;;;5070783;28;20036;-69
2022/03/14 00:58:03;;;;;;;20.77;15.10;;;8.60;65.00;;;;;;5053183;28;20043;-69
2022/03/14 01:00:29;;;;;;;22.70;13.95;;;8.50;65.20;;;;;;5071172;28;20044;-69
2022/03/14 01:02:55;;;;;;;23.02;14.95;;;8.50;66.00;;;;;;5053635;28;20036;-69
2022/03/14 01:05:20;;;;;;;18.70;13.90;;;8.50;66.40;;;;;;5056912;28;20036;-69
2022/03/14 01:07:46;;;;;;;19.00;13.75;;;8.40;66.90;;;;;;5074694;28;20094;-69
2022/03/14 01:10:13;;;;;;;20.98;15.00;;;8.40;67.30;;;;;;5074659;28;20039;-69
2022/03/14 01:12:39;;;;;;;19.73;13.40;;;8.40;68.00;;;;;;5075060;28;20047;-69
2022/03/14 01:15:05;;;;;;;19.88;14.70;;;8.40;68.60;;;;;;5074794;28;20048;-69
2022/03/14 01:17:31;;;;;;;21.65;14.20;;;8.40;69.40;;;;;;5074466;28;20098;-69
2022/03/14 01:19:57;;;;;;;22.35;13.88;;;8.40;70.20;;;;;;5074700;28;20425;-69
2022/03/14 01:22:22;;;;;;;19.58;14.52;;;8.40;71.50;;;;;;5074647;28;20115;-69
2022/03/14 01:24:48;;;;;;;21.23;15.20;;;8.40;71.70;;;;;;5074371;28;20032;-69
2022/03/14 01:27:13;;;;;;;22.05;15.88;;;8.40;71.50;;;;;;5073951;28;20521;-69
2022/03/14 01:29:39;;;;;;;23.05;15.68;;;8.40;72.20;;;;;;5074657;28;20437;-69
2022/03/14 01:32:06;;;;;;;23.90;14.55;;;8.50;72.90;;;;;;5074300;28;20397;-69
2022/03/14 01:34:32;;;;;;;24.00;14.65;;;8.50;73.50;;;;;;5056473;28;20047;-69
2022/03/14 01:36:58;;;;;;;20.65;14.48;;;8.60;74.20;;;;;;5073975;28;20044;-69
2022/03/14 01:39:24;;;;;;;19.05;13.82;;;8.60;75.00;;;;;;5074112;28;20082;-69
2022/03/14 01:41:50;;;;;;;19.92;13.90;;;8.60;75.80;;;;;;5074408;28;20040;-69
2022/03/14 01:44:16;;;;;;;20.45;14.20;;;8.70;76.60;;;;;;5074080;28;20559;-69
2022/03/14 01:46:42;;;;;;;22.05;14.45;;;8.70;77.30;;;;;;5073959;28;20051;-69
2022/03/14 01:49:08;;;;;;;22.85;13.95;;;8.70;78.80;;;;;;5074189;28;20032;-69
2022/03/14 01:51:34;;;;;;;21.00;13.38;;;8.70;79.70;;;;;;5056069;28;20093;-69
2022/03/14 01:54:00;;;;;;;18.38;13.23;;;8.70;81.70;;;;;;5073718;28;20040;-69
2022/03/14 01:56:26;;;;;;;20.30;13.35;;;8.70;82.80;;;;;;5073836;28;20089;-69
2022/03/14 01:58:52;;;;;;;19.55;13.93;;;8.70;84.10;;;;;;5073963;28;20033;-69
2022/03/14 02:01:21;;;;;;;17.02;12.68;;;8.80;85.30;;;;;;5073979;28;20115;-69
2022/03/14 02:03:50;;;;;;;19.02;13.63;;;8.80;86.80;;;;;;5073828;28;20405;-69
2022/03/14 02:06:15;;;;;;;18.73;13.00;;;8.80;88.80;;;;;;5073354;28;20048;-69
2022/03/14 02:08:41;;;;;;;19.52;13.32;;;8.80;90.20;;;;;;5073553;28;20040;-69
2022/03/14 02:11:07;;;;;;;17.08;11.65;;;8.80;90.60;;;;;;5073620;28;20040;-69
2022/03/14 02:13:32;;;;;;;16.70;12.15;;;8.90;91.30;;;;;;5073474;28;20036;-69
2022/03/14 02:15:58;;;;;;;17.33;11.63;;;8.80;92.20;;;;;;5073220;28;20040;-69
2022/03/14 02:18:23;;;;;;;17.30;12.02;;;8.90;92.70;;;;;;5073610;28;20126;-69
2022/03/14 02:20:49;;;;;;;19.45;12.00;;;8.90;93.10;;;;;;5073482;28;20036;-69
2022/03/14 02:23:14;;;;;;;18.88;10.68;;;8.90;93.30;;;;;;5073383;28;20040;-69
2022/03/14 02:25:51;;;;;;;15.98;11.23;;;8.90;94.20;;;;;;5072959;28;20490;-69
2022/03/14 02:28:22;;;;;;;18.05;10.85;;;9.00;95.20;;;;;;5055447;28;20044;-69
2022/03/14 02:30:49;;;;;;;15.02;10.55;;;9.00;94.70;;;;;;5073306;28;20091;-69
2022/03/14 02:33:14;;;;;;;15.77;10.38;;;9.00;95.30;;;;;;5055610;28;20531;-69
2022/03/14 02:35:42;;;;;;;14.63;10.23;;;9.00;95.50;;;;;;5055041;28;20040;-69
2022/03/14 02:38:11;;;;;;;15.38;10.00;;;9.00;95.70;;;;;;5073316;28;20040;-69
2022/03/14 02:40:39;;;;;;;11.90;9.55;;;9.00;96.10;;;;;;5073272;28;20119;-69
2022/03/14 02:43:07;;;;;;;15.73;10.63;;;9.00;96.60;;;;;;5073155;28;20060;-69
2022/03/14 02:45:33;;;;;;;14.57;10.45;;;9.10;96.90;;;;;;5072524;28;20559;-69
2022/03/14 02:48:00;;;;;;;15.73;11.35;;;9.00;97.10;;;;;;5073016;28;20040;-69
2022/03/14 02:50:26;;;;;;;14.50;10.20;;;9.10;97.50;;;;;;5072788;28;20032;-69
2022/03/14 02:52:52;;;;;;;13.15;9.70;;;9.00;97.70;;;;;;5073040;28;20475;-69
2022/03/14 02:55:21;;;;;;;15.40;10.75;;;9.00;98.10;;;;;;5072743;28;20127;-69
2022/03/14 02:57:46;;;;;;;16.63;11.45;;;9.00;98.60;;;;;;5054932;28;20093;-69
2022/03/14 03:00:13;;;;;;;17.42;11.80;;;9.00;98.70;;;;;;5072803;28;20489;-70
2022/03/14 03:02:42;;;;;;;17.83;10.90;;;9.00;98.70;;;;;;5072718;28;20150;-69
2022/03/14 03:05:08;;;;;;;14.90;9.73;;;9.00;99.10;;;;;;5054863;28;20040;-69
2022/03/14 03:07:35;;;;;;;15.57;10.60;;;9.00;99.60;;;;;;5072435;28;20114;-69
2022/03/14 03:10:03;;;;;;;16.83;11.02;;;9.00;99.90;;;;;;5072643;28;20032;-69
2022/03/14 03:12:28;;;;;;;14.02;10.30;;;9.00;99.90;;;;;;5054829;28;20087;-69
2022/03/14 03:14:55;;;;;;;15.45;9.20;;;9.00;99.90;;;;;;5072555;28;20513;-69
2022/03/14 03:17:21;;;;;;;13.15;9.48;;;9.00;99.90;;;;;;5071947;28;20090;-69
2022/03/14 03:19:47;;;;;;;12.00;8.70;;;9.00;99.90;;;;;;5072603;28;20037;-69
2022/03/14 03:22:12;;;;;;;11.20;8.30;;;9.10;99.90;;;;;;5072444;28;20387;-69
2022/03/14 03:24:38;;;;;;;12.13;8.00;;;9.10;99.90;;;;;;5072226;28;20033;-69
2022/03/14 03:27:04;;;;;;;11.95;7.93;;;9.10;99.90;;;;;;5071094;28;20044;-69
2022/03/14 03:29:29;;;;;;;13.00;8.23;;;9.10;99.90;;;;;;5054274;28;20085;-69
2022/03/14 03:31:55;;;;;;;12.98;7.90;;;9.20;99.90;;;;;;5072021;28;20119;-69
2022/03/14 03:34:21;;;;;;;10.25;7.43;;;9.20;99.90;;;;;;5072222;28;20089;-69
2022/03/14 03:36:46;;;;;;;12.63;8.40;;;9.20;99.90;;;;;;5071647;28;20117;-69
2022/03/14 03:39:12;;;;;;;11.02;7.90;;;9.20;99.90;;;;;;5072080;28;20036;-69
2022/03/14 03:41:38;;;;;;;11.38;7.43;;;9.20;99.90;;;;;;5072057;28;20036;-69
2022/03/14 03:44:04;;;;;;;12.43;7.25;;;9.20;99.90;;;;;;5071956;28;20040;-69
2022/03/14 03:46:30;;;;;;;11.15;7.53;;;9.30;99.90;;;;;;5071359;28;20071;-69
2022/03/14 03:48:55;;;;;;;10.43;7.30;;;9.30;99.90;;;;;;5071830;28;20073;-69
2022/03/14 03:51:21;;;;;;;14.27;7.28;;;9.30;99.90;;;;;;5072006;28;20043;-69
2022/03/14 03:53:46;;;;;;;10.30;6.53;;;9.30;99.90;;;;;;5071998;28;20504;-69
2022/03/14 03:56:12;;;;;;;7.90;5.85;;;9.30;99.90;;;;;;5071457;28;20032;-69
2022/03/14 03:58:37;;;;;;;8.35;5.95;;;9.40;99.90;;;;;;5071897;28;20102;-69
2022/03/14 04:01:03;;;;;;;8.57;5.57;;;9.40;99.90;;;;;;5071620;28;20040;-69
2022/03/14 04:03:29;;;;;;;7.55;5.60;;;9.40;99.90;;;;;;5071960;28;20371;-69
2022/03/14 04:05:54;;;;;;;8.52;5.95;;;9.40;99.90;;;;;;5071386;28;20032;-69
2022/03/14 04:08:21;;;;;;;7.90;5.22;;;9.40;99.90;;;;;;5071918;28;20052;-69
2022/03/14 04:10:53;;;;;;;8.88;6.07;;;9.40;99.90;;;;;;5071803;28;20040;-69
2022/03/14 04:13:23;;;;;;;7.85;6.38;;;9.40;99.90;;;;;;5071772;28;20040;-69
2022/03/14 04:15:52;;;;;;;8.05;5.53;;;9.40;99.90;;;;;;5071181;28;20044;-69
2022/03/14 04:18:25;;;;;;;9.05;6.30;;;9.40;99.90;;;;;;5071819;28;20064;-69
2022/03/14 04:20:52;;;;;;;9.23;5.80;;;9.40;99.90;;;;;;5071816;28;20044;-69
2022/03/14 04:23:19;;;;;;;8.10;5.20;;;9.40;99.90;;;;;;5053724;28;20056;-69
2022/03/14 04:25:45;;;;;;;6.88;5.15;;;9.40;99.90;;;;;;5071002;28;20075;-69
2022/03/14 04:28:14;;;;;;;7.35;5.28;;;9.40;99.90;;;;;;5110665;22;20072;-70
2022/03/14 04:30:40;;;;;;;7.18;5.38;;;9.40;99.90;;;;;;5091235;28;20040;-71
2022/03/14 04:33:08;;;;;;;6.82;5.20;;;9.40;99.90;;;;;;5091826;28;20092;-70
2022/03/14 04:35:35;;;;;;;6.75;5.35;;;9.30;99.90;;;;;;5073361;28;20505;-70
2022/03/14 04:38:02;;;;;;;5.60;4.60;;;9.20;99.90;;;;;;5076071;28;20088;-70
2022/03/14 04:40:27;;;;;;;6.85;5.32;;;9.20;99.90;;;;;;5095817;28;20036;-70
2022/03/14 04:42:53;;;;;;;9.70;5.35;;;9.20;99.90;;;;;;5095820;28;20088;-70
2022/03/14 04:45:19;;;;;;;7.07;5.22;;;9.20;99.90;;;;;;5095616;28;20127;-70
2022/03/14 04:47:44;;;;;;;6.60;5.05;;;9.20;99.90;;;;;;5095652;28;20032;-70
2022/03/14 04:50:10;;;;;;;7.97;5.32;;;9.20;99.90;;;;;;5095877;28;20042;-70
2022/03/14 04:52:36;;;;;;;8.40;5.88;;;9.20;99.90;;;;;;5077280;28;20051;-70
2022/03/14 04:55:02;;;;;;;7.53;4.95;;;9.10;99.90;;;;;;5077377;28;20418;-70
2022/03/14 04:57:28;;;;;;;8.50;5.45;;;9.20;99.90;;;;;;5060203;28;20544;-70
2022/03/14 04:59:53;;;;;;;6.95;5.18;;;9.20;99.90;;;;;;5095717;28;20114;-70
2022/03/14 05:02:21;;;;;;;6.72;5.45;;;9.10;99.90;;;;;;5095483;28;20494;-70
2022/03/14 05:04:47;;;;;;;8.25;6.07;;;9.20;99.90;;;;;;5077269;28;20478;-71
2022/03/14 05:07:12;;;;;;;6.25;5.03;;;9.20;99.90;;;;;;5094913;28;20078;-71
2022/03/14 05:09:38;;;;;;;6.57;4.78;;;9.20;99.90;;;;;;5076990;28;20042;-70
2022/03/14 05:12:04;;;;;;;6.07;4.90;;;9.20;99.90;;;;;;5095250;28;20405;-70
2022/03/14 05:14:30;;;;;;;9.40;5.25;;;9.20;99.90;;;;;;5095314;28;20032;-70
2022/03/14 05:16:56;;;;;;;5.97;4.50;;;9.20;99.90;;;;;;5076468;28;20043;-70
2022/03/14 05:19:21;;;;;;;6.85;5.28;;;9.20;99.90;;;;;;5076790;28;20123;-70
2022/03/14 05:21:47;;;;;;;6.70;5.38;;;9.20;99.90;;;;;;5076828;28;20404;-70
2022/03/14 05:24:13;;;;;;;7.18;5.53;;;9.10;99.90;;;;;;5094815;28;20436;-71
2022/03/14 05:26:38;;;;;;;6.95;5.35;;;9.10;99.90;;;;;;5094293;28;20039;-71
2022/03/14 05:29:05;;;;;;;6.00;4.78;;;9.10;99.90;;;;;;5094934;28;20382;-70
2022/03/14 05:31:30;;;;;;;8.80;4.85;;;9.10;99.90;;;;;;5076702;28;20401;-70
2022/03/14 05:33:56;;;;;;;7.05;5.03;;;9.00;99.90;;;;;;5094877;28;20032;-70
2022/03/14 05:36:22;;;;;;;6.32;5.30;;;9.00;99.90;;;;;;5094382;28;20063;-70
2022/03/14 05:38:47;;;;;;;6.13;5.22;;;9.00;99.90;;;;;;5094587;28;20052;-70
2022/03/14 05:41:13;;;;;;;7.03;5.28;;;8.90;99.90;;;;;;5076464;28;20044;-70
2022/03/14 05:43:38;;;;;;;6.93;5.00;;;8.90;99.90;;;;;;5076422;28;20504;-71
2022/03/14 05:46:08;;;;;;;7.55;4.80;;;8.90;99.90;;;;;;5075915;28;20044;-70
2022/03/14 05:48:35;;;;;;;9.13;5.45;;;8.90;99.90;;;;;;5075853;28;20393;-70
2022/03/14 05:51:04;;;;;;;6.22;4.90;;;8.90;99.90;;;;;;5076146;28;20370;-70
2022/03/14 05:53:31;;;;;;;7.28;5.50;;;8.90;99.90;;;;;;5094412;28;20047;-71
2022/03/14 05:55:57;;;;;;;8.02;4.97;;;8.90;99.90;;;;;;5075803;28;20131;-71
2022/03/14 05:58:24;;;;;;;6.55;5.20;;;8.80;99.90;;;;;;5076264;28;20101;-71
2022/03/14 06:00:52;;;;;;;7.63;5.30;;;8.80;99.90;;;;;;5078092;28;20044;-70
2022/03/14 06:03:20;;;;;;;8.02;5.40;;;8.80;99.90;;;;;;5056233;28;20378;-71
2022/03/14 06:05:49;;;;;;;7.40;5.05;;;8.90;99.90;;;;;;5055673;28;20123;-71
2022/03/14 06:08:16;;;;;;;8.48;4.38;;;8.90;99.90;;;;;;5073628;28;20036;-71
2022/03/14 06:10:45;;;;;;;7.88;5.22;;;8.90;99.90;;;;;;5074001;28;20072;-71
2022/03/14 06:13:10;;;;;;;8.52;4.45;;;8.90;99.90;;;;;;5073851;28;20473;-71
2022/03/14 06:15:36;;;;;;;6.30;4.53;;;8.90;99.90;;;;;;5055657;28;20044;-71
2022/03/14 06:18:02;;;;;;;5.70;4.53;;;8.90;99.90;;;;;;5055741;28;20049;-70
2022/03/14 06:20:28;;;;;;;6.55;4.85;;;8.90;99.90;;;;;;5073617;28;20044;-71
2022/03/14 06:22:53;;;;;;;8.18;4.60;;;8.90;99.90;;;;;;5075842;28;20089;-71
2022/03/14 06:25:19;;;;;;;5.57;4.47;;;8.90;99.90;;;;;;5065141;28;20040;-71
2022/03/14 06:27:45;;;;;;;8.07;5.13;;;8.90;99.90;;;;;;5090519;28;20044;-71
2022/03/14 06:30:11;;;;;;;6.60;5.05;;;8.90;99.90;;;;;;5093858;28;20040;-71
2022/03/14 06:32:39;;;;;;;7.78;4.95;;;8.90;99.90;;;;;;5058733;28;20043;-70
2022/03/14 06:35:07;;;;;;;5.72;4.63;;;8.90;99.90;;;;;;5093330;28;20054;-71
2022/03/14 06:37:32;;;;;;;6.25;5.15;;;8.90;99.90;;;;;;5092915;28;20111;-70
2022/03/14 06:39:58;;;;;;;6.57;5.30;;;8.90;99.90;;;;;;5075301;28;20615;-70
2022/03/14 06:42:23;;;;;;;6.30;4.75;;;8.90;99.90;;;;;;5075273;28;20456;-70
2022/03/14 06:44:50;;;;;;;5.95;4.95;;;9.00;99.90;;;;;;5075336;28;20102;-70
2022/03/14 06:47:19;;;;;;;6.28;5.25;;;8.90;99.90;;;;;;5074739;28;20036;-70
2022/03/14 06:49:45;;;;;;;7.40;5.28;;;9.00;99.90;;;;;;5093349;28;20031;-70
2022/03/14 06:52:16;;;;;;;10.15;5.35;;;9.00;99.90;;;;;;5074997;28;20098;-70
2022/03/14 06:54:42;;;;;;;8.30;5.63;;;9.00;99.90;;;;;;5074999;28;20043;-70
2022/03/14 06:57:09;;;;;;;7.15;6.03;;;9.00;99.90;;;;;;5092920;28;20040;-70
2022/03/14 06:59:36;;;;;;;8.43;5.78;;;9.00;99.90;;;;;;5093188;28;20390;-71
2022/03/14 07:02:03;;;;;;;7.90;5.22;;;9.00;99.90;;;;;;5074866;28;20047;-70
2022/03/14 07:04:29;;;;;;;6.97;5.65;;;9.00;99.90;;;;;;5092800;28;20127;-70
2022/03/14 07:06:55;;;;;;;8.23;5.63;;;9.00;99.90;;;;;;5092804;28;20051;-70
2022/03/14 07:09:21;;;;;;;6.93;5.10;;;9.00;99.90;;;;;;5074716;28;20039;-70
2022/03/14 07:11:51;;;;;;;6.88;4.18;;;9.00;99.90;;;;;;5074997;28;20043;-70
2022/03/14 07:14:21;;;;;;;6.85;5.53;;;9.10;99.90;;;;;;5074919;28;20086;-70
2022/03/14 07:16:47;;;;;;;6.28;4.97;;;9.10;99.90;;;;;;5074467;28;20375;-70
2022/03/14 07:19:12;;;;;;;7.18;4.72;;;9.10;99.90;;;;;;5074523;28;20040;-70
2022/03/14 07:21:38;;;;;;;6.53;4.82;;;9.10;99.90;;;;;;5092898;28;20039;-71
2022/03/14 07:24:04;;;;;;;6.22;4.60;;;9.20;99.90;;;;;;5092829;28;20036;-71
2022/03/14 07:26:30;;;;;;;5.95;4.85;;;9.20;99.90;;;;;;5092139;28;20046;-71
2022/03/14 07:28:55;;;;;;;6.10;5.10;;;9.20;99.90;;;;;;5074416;28;20043;-70
2022/03/14 07:31:21;;;;;;;7.45;4.70;;;9.20;99.90;;;;;;5092493;28;20397;-70
2022/03/14 07:33:48;;;;;;;7.20;5.65;;;9.20;99.90;;;;;;5074369;28;20565;-70
2022/03/14 07:36:14;;;;;;;6.20;5.00;;;9.20;99.90;;;;;;5092174;28;20085;-70
2022/03/14 07:38:40;;;;;;;8.13;5.72;;;9.20;99.90;;;;;;5074251;28;20040;-71
2022/03/14 07:41:06;;;;;;;6.65;5.25;;;9.20;99.90;;;;;;5092492;28;20038;-71
2022/03/14 07:43:31;;;;;;;7.63;6.10;;;9.30;99.90;;;;;;5074171;28;20550;-70
2022/03/14 07:45:57;;;;;;;7.43;4.60;;;9.30;99.90;;;;;;5091819;28;20040;-71
2022/03/14 07:48:23;;;;;;;8.27;5.80;;;9.30;99.90;;;;;;5073871;28;20451;-70
2022/03/14 07:50:49;;;;;;;6.60;5.10;;;9.30;99.90;;;;;;5092371;28;20036;-70
2022/03/14 07:53:15;;;;;;;8.57;5.35;;;9.30;99.90;;;;;;5073994;28;20085;-71
2022/03/14 07:55:40;;;;;;;7.13;4.90;;;9.30;99.90;;;;;;5091945;28;20044;-71
2022/03/14 07:58:06;;;;;;;5.97;5.03;;;9.40;99.90;;;;;;5073950;28;20040;-70
2022/03/14 08:00:31;;;;;;;9.43;5.40;;;9.40;99.90;;;;;;5073937;28;20094;-70
2022/03/14 08:02:57;;;;;;;7.22;5.43;;;9.40;99.90;;;;;;5074039;28;20112;-71
2022/03/14 08:05:25;;;;;;;7.43;5.85;;;9.40;99.90;;;;;;5091561;28;20047;-70
2022/03/14 08:07:52;;;;;;;7.93;6.18;;;9.40;99.90;;;;;;5073798;28;20040;-70
2022/03/14 08:10:18;;;;;;;7.75;5.82;;;9.50;99.90;;;;;;5092001;28;20051;-70
2022/03/14 08:12:47;;;;;;;7.57;5.82;;;9.50;99.90;;;;;;5091552;28;20032;-70
2022/03/14 08:15:33;;;;;;;7.68;5.45;;;9.40;99.90;;;;;;5091687;28;20044;-71
2022/03/14 08:18:04;;;;;;;7.22;5.45;;;9.50;99.90;;;;;;5074043;28;20048;-71
2022/03/14 08:20:30;;;;;;;8.45;6.30;;;9.50;99.90;;;;;;5091928;28;20177;-71
2022/03/14 08:22:58;;;;;;;7.57;5.32;;;9.50;99.90;;;;;;5073745;28;20075;-71
2022/03/14 08:25:24;;;;;;;6.28;5.20;;;9.50;99.90;;;;;;5091481;28;20037;-71
2022/03/14 08:27:51;;;;;;;7.38;5.43;;;9.60;99.90;;;;;;5073366;28;20040;-71
2022/03/14 08:30:17;;;;;;;6.53;5.70;;;9.60;99.90;;;;;;5073638;28;20036;-71
2022/03/14 08:32:44;;;;;;;7.78;5.60;;;9.60;99.90;;;;;;5073607;28;20421;-70
2022/03/14 08:35:10;;;;;;;6.70;5.60;;;9.60;99.90;;;;;;5091714;28;20066;-70
2022/03/14 08:37:40;;;;;;;7.72;6.28;;;9.60;99.90;;;;;;5091302;28;20491;-70
2022/03/14 08:40:09;;;;;;;8.57;5.90;;;9.60;99.90;;;;;;5073554;28;20528;-70
2022/03/14 08:42:35;;;;;;;8.43;5.78;;;9.70;99.90;;;;;;5073364;28;20040;-70
2022/03/14 08:45:01;;;;;;;7.38;6.35;;;9.70;99.90;;;;;;5091658;28;20124;-70
2022/03/14 08:47:26;;;;;;;7.68;5.88;;;9.70;99.90;;;;;;5091412;28;20115;-71
2022/03/14 08:49:52;;;;;;;8.20;6.32;;;9.70;99.90;;;;;;5073766;28;20394;-70
2022/03/14 08:52:18;;;;;;;7.85;6.03;;;9.70;99.90;;;;;;5091634;28;20047;-70
2022/03/14 08:54:44;;;;;;;8.50;5.93;;;9.80;99.90;;;;;;5091490;28;20047;-70
2022/03/14 08:57:09;;;;;;;9.32;6.80;;;9.80;99.90;;;;;;5091010;28;20036;-70
2022/03/14 08:59:35;;;;;;;7.95;6.30;;;9.80;99.90;;;;;;5073250;28;20115;-70
2022/03/14 09:02:01;;;;;;;7.75;5.43;;;9.80;99.90;;;;;;5073551;28;20111;-70
2022/03/14 09:04:26;;;;;;;8.45;6.70;;;9.80;99.90;;;;;;5073302;28;20036;-70
2022/03/14 09:06:52;;;;;;;8.40;6.43;;;9.80;99.90;;;;;;5073171;28;20374;-70
2022/03/14 09:09:18;;;;;;;9.15;7.07;;;9.80;99.90;;;;;;5091367;28;20481;-70
2022/03/14 09:11:44;;;;;;;7.20;5.97;;;9.80;99.90;;;;;;5091233;28;20040;-70
2022/03/14 09:14:10;;;;;;;8.75;7.07;;;9.80;99.90;;;;;;5091503;28;20044;-70
2022/03/14 09:16:36;;;;;;;6.72;5.88;;;9.80;99.90;;;;;;5091079;28;20138;-70
2022/03/14 09:19:02;;;;;;;9.55;7.20;;;9.90;99.90;;;;;;5091394;28;20122;-70
2022/03/14 09:21:28;;;;;;;10.13;6.72;;;9.90;99.90;;;;;;5073306;28;20040;-70
2022/03/14 09:23:53;;;;;;;9.65;8.07;;;9.90;99.90;;;;;;5073698;28;20051;-70
2022/03/14 09:26:19;;;;;;;7.95;7.13;;;10.00;99.90;;;;;;5075958;28;20040;-70
2022/03/14 09:28:47;;;;;;;9.55;7.00;;;10.00;99.90;;;;;;5095065;28;20040;-71
2022/03/14 09:31:12;;;;;;;10.02;7.32;;;10.00;99.90;;;;;;5059924;28;20036;-71
2022/03/14 09:33:39;;;;;;;10.63;7.93;;;10.00;99.90;;;;;;5059889;28;20119;-71
2022/03/14 09:36:04;;;;;;;10.57;8.10;;;10.00;99.90;;;;;;5094419;28;20036;-71
2022/03/14 09:38:30;;;;;;;8.70;7.18;;;10.10;99.90;;;;;;5076811;28;20487;-71
2022/03/14 09:41:03;;;;;;;8.88;7.15;;;10.10;99.90;;;;;;5094467;28;20071;-71
2022/03/14 09:43:37;;;;;;;10.18;8.02;;;10.10;99.90;;;;;;5076449;28;20093;-70
2022/03/14 09:46:05;;;;;;;9.75;8.40;;;10.10;99.90;;;;;;5094019;28;20532;-71
2022/03/14 09:48:36;;;;;;;12.23;8.25;;;10.10;99.90;;;;;;5076437;28;20078;-71
2022/03/14 09:51:03;;;;;;;9.82;8.38;;;10.10;99.90;;;;;;5076581;28;20051;-70
2022/03/14 09:53:29;;;;;;;11.55;8.48;;;10.10;99.90;;;;;;5094396;28;20040;-71
2022/03/14 09:55:56;;;;;;;11.50;9.07;;;10.10;99.90;;;;;;5094224;28;20050;-70
2022/03/14 09:58:22;;;;;;;12.07;9.48;;;10.10;99.90;;;;;;5094295;28;20501;-70
2022/03/14 10:00:48;;;;;;;12.02;9.13;;;10.10;99.90;;;;;;5076120;28;20059;-71
2022/03/14 10:03:16;;;;;;;11.45;8.85;;;10.10;99.90;;;;;;5076083;28;20047;-71
2022/03/14 10:05:42;;;;;;;10.48;8.88;;;10.10;99.90;;;;;;5075579;28;20040;-71
2022/03/14 10:08:09;;;;;;;13.25;9.90;;;10.10;99.90;;;;;;5094096;28;20459;-71
2022/03/14 10:10:37;;;;;;;11.93;9.70;;;10.10;99.90;;;;;;5075998;28;20040;-71
2022/03/14 10:13:05;;;;;;;12.95;9.80;;;10.10;99.90;;;;;;5094059;28;20058;-70
2022/03/14 10:15:35;;;;;;;14.60;11.40;;;10.10;99.90;;;;;;5075767;28;20054;-70
2022/03/14 10:18:15;;;;;;;13.73;10.70;;;10.10;99.90;;;;;;5093858;28;20496;-70
2022/03/14 10:20:56;;;;;;;14.02;10.57;;;10.10;99.90;;;;;;5075845;28;20101;-71
2022/03/14 10:23:43;;;;;;;17.35;11.93;;;10.10;99.90;;;;;;5076072;28;20093;-71
2022/03/14 10:26:16;;;;;;;17.67;12.57;;;10.10;99.90;;;;;;5093182;28;20115;-70
2022/03/14 10:28:48;;;;;;;22.52;14.80;;;9.90;99.90;;;;;;5099261;22;20047;-70
2022/03/14 10:31:14;;;;;;;24.02;15.60;;;9.90;99.90;;;;;;5073371;28;20032;-70
2022/03/14 10:33:40;;;;;;;21.20;13.93;;;9.80;99.90;;;;;;5073473;28;20529;-70
2022/03/14 10:36:06;;;;;;;22.00;13.18;;;9.70;99.90;;;;;;5072681;28;20220;-70
2022/03/14 10:38:41;;;;;;;18.88;12.38;;;9.60;99.90;;;;;;5072866;28;20041;-70
2022/03/14 10:41:16;;;;;;;18.88;11.80;;;9.50;99.90;;;;;;5072157;28;20047;-70
2022/03/14 10:43:42;;;;;;;20.70;11.15;;;9.50;99.90;;;;;;5072973;28;20072;-70
2022/03/14 10:46:08;;;;;;;23.25;12.32;;;9.40;99.90;;;;;;5072926;28;20157;-70
2022/03/14 10:48:45;;;;;;;20.52;11.23;;;9.30;99.90;;;;;;5072922;28;20040;-70
2022/03/14 10:51:18;;;;;;;18.92;11.18;;;9.40;99.90;;;;;;5071698;28;20037;-70
2022/03/14 10:53:46;;;;;;;18.70;11.13;;;9.30;99.90;;;;;;5072888;28;20490;-70
2022/03/14 10:56:12;;;;;;;21.67;12.05;;;9.30;99.90;;;;;;5072498;28;20044;-69
2022/03/14 10:58:39;;;;;;;20.05;12.40;;;9.40;99.90;;;;;;5071611;28;20044;-70
2022/03/14 11:01:12;;;;;;;23.45;12.20;;;9.50;99.90;;;;;;5073007;28;20075;-70
2022/03/14 11:03:42;;;;;;;25.17;12.35;;;9.50;99.90;;;;;;5071949;28;20037;-70
2022/03/14 11:06:13;;;;;;;22.38;12.68;;;9.50;99.90;;;;;;5072803;28;20072;-70
2022/03/14 11:08:44;;;;;;;23.90;14.35;;;9.60;99.90;;;;;;5071623;28;20044;-70
2022/03/14 11:11:19;;;;;;;22.95;12.98;;;9.60;99.90;;;;;;5072933;28;20397;-71
2022/03/14 11:13:50;;;;;;;28.95;13.93;;;9.60;99.90;;;;;;5072801;28;20044;-70
2022/03/14 11:16:24;;;;;;;26.10;14.80;;;9.50;99.90;;;;;;5071243;28;20041;-70
2022/03/14 11:18:50;;;;;;;27.73;14.60;;;9.60;99.90;;;;;;5071145;28;20049;-70
2022/03/14 11:21:19;;;;;;;28.67;15.02;;;9.60;99.90;;;;;;5072390;28;20052;-70
2022/03/14 11:23:47;;;;;;;24.52;13.77;;;9.60;99.90;;;;;;5071160;28;20045;-70
2022/03/14 11:26:15;;;;;;;29.85;15.38;;;9.70;99.90;;;;;;5071999;28;20089;-70
2022/03/14 11:28:42;;;;;;;30.70;15.63;;;9.70;99.90;;;;;;5072137;28;20043;-70
2022/03/14 11:31:09;;;;;;;27.15;15.05;;;9.70;99.90;;;;;;5071009;28;20036;-70
2022/03/14 11:33:35;;;;;;;31.17;15.23;;;9.70;99.90;;;;;;5072102;28;20044;-70
2022/03/14 11:36:02;;;;;;;34.40;15.25;;;9.70;99.90;;;;;;5072259;28;20041;-70
2022/03/14 11:38:29;;;;;;;28.73;14.32;;;9.80;99.90;;;;;;5072005;28;20041;-70
2022/03/14 11:40:55;;;;;;;33.72;15.55;;;9.80;99.90;;;;;;5070900;28;20044;-70
2022/03/14 11:43:22;;;;;;;30.15;14.10;;;9.80;99.90;;;;;;5070884;28;20036;-70
2022/03/14 11:45:48;;;;;;;25.48;13.60;;;9.80;99.90;;;;;;5071745;28;20441;-70
2022/03/14 11:48:14;;;;;;;33.88;13.68;;;9.80;99.90;;;;;;5071213;28;20036;-70
2022/03/14 11:50:44;;;;;;;31.55;15.43;;;9.80;99.90;;;;;;5071956;28;20037;-70
2022/03/14 11:53:27;;;;;;;24.40;13.60;;;9.80;99.90;;;;;;5070663;28;20047;-70
2022/03/14 11:55:56;;;;;;;24.02;12.23;;;9.90;99.90;;;;;;5071818;28;20048;-70
2022/03/14 11:58:40;;;;;;;24.67;12.77;;;9.80;99.90;;;;;;5071909;28;20050;-71
2022/03/14 12:01:17;;;;;;;26.90;14.63;;;9.80;99.90;;;;;;5071907;28;20049;-71
2022/03/14 12:03:53;;;;;;;28.60;13.70;;;9.80;99.90;;;;;;5071836;28;20044;-71
2022/03/14 12:06:47;;;;;;;23.85;12.07;;;9.70;99.90;;;;;;5071577;28;20476;-70
2022/03/14 12:09:25;;;;;;;26.98;12.32;;;9.70;99.90;;;;;;5070493;28;20044;-70
2022/03/14 12:11:55;;;;;;;28.40;12.77;;;9.70;99.90;;;;;;5071901;28;20394;-70
2022/03/14 12:14:44;;;;;;;25.00;11.35;;;9.70;99.90;;;;;;5037450;28;20133;-70
2022/03/14 12:17:15;;;;;;;21.23;11.88;;;9.70;99.90;;;;;;5070338;28;20125;-70
2022/03/14 12:19:58;;;;;;;22.55;11.38;;;9.80;99.90;;;;;;5071446;28;20119;-70
2022/03/14 12:22:29;;;;;;;24.73;12.33;;;9.70;99.90;;;;;;5071835;28;20040;-69
2022/03/14 12:24:59;;;;;;;25.17;13.13;;;9.80;99.90;;;;;;5070095;28;20309;-71
2022/03/14 12:27:31;;;;;;;26.80;13.40;;;9.80;99.90;;;;;;5071267;28;20036;-70
2022/03/14 12:30:15;;;;;;;22.23;11.32;;;9.80;99.90;;;;;;5070792;28;20405;-70
2022/03/14 12:32:48;;;;;;;24.70;12.85;;;9.80;99.90;;;;;;5071611;28;20394;-70
2022/03/14 12:35:17;;;;;;;24.52;12.38;;;9.70;99.90;;;;;;5071545;28;20052;-70
2022/03/14 12:37:50;;;;;;;28.08;12.60;;;9.70;99.90;;;;;;5070912;28;20040;-74
2022/03/14 12:40:21;;;;;;;29.02;12.75;;;9.70;99.90;;;;;;5070786;28;20040;-73
2022/03/14 12:42:52;;;;;;;20.77;11.93;;;9.80;99.90;;;;;;5070684;28;20135;-74
2022/03/14 12:45:35;;;;;;;23.58;11.98;;;9.90;99.90;;;;;;5072408;28;20119;-73
2022/03/14 12:48:12;;;;;;;22.23;11.50;;;9.90;99.90;;;;;;5086587;28;20543;-73